sensor_id;sensor_type;location;lat;lon;timestamp;temperature;humidity
71942;DHT22;59997;53.300;-6.260;2023-01-13T00:01:58;6.58;85.12
71942;DHT22;59997;53.300;-6.260;2023-01-13T00:04:24;6.60;85.18
71942;DHT22;59997;53.300;-6.260;2023-01-13T00:06:49;6.55;85.09
71942;DHT22;59997;53.300;-6.260;2023-01-13T00:09:14;6.55;85.08
71942;DHT22;59997;53.300;-6.260;2023-01-13T00:11:40;6.48;85.51
71942;DHT22;59997;53.300;-6.260;2023-01-13T00:14:05;6.54;85.16
71942;DHT22;59997;53.300;-6.260;2023-01-13T00:16:31;6.53;85.58
71942;DHT22;59997;53.300;-6.260;2023-01-13T00:18:56;6.58;85.08
71942;DHT22;59997;53.300;-6.260;2023-01-13T00:21:23;6.63;84.71
71942;DHT22;59997;53.300;-6.260;2023-01-13T00:23:50;6.65;84.59
71942;DHT22;59997;53.300;-6.260;2023-01-13T00:26:24;6.58;85.01
71942;DHT22;59997;53.300;-6.260;2023-01-13T00:28:54;6.58;85.38
71942;DHT22;59997;53.300;-6.260;2023-01-13T00:31:20;6.61;85.20
71942;DHT22;59997;53.300;-6.260;2023-01-13T00:33:46;6.55;85.63
71942;DHT22;59997;53.300;-6.260;2023-01-13T00:36:14;6.63;85.24
71942;DHT22;59997;53.300;-6.260;2023-01-13T00:38:40;6.64;85.31
71942;DHT22;59997;53.300;-6.260;2023-01-13T00:41:15;6.58;85.76
71942;DHT22;59997;53.300;-6.260;2023-01-13T00:43:41;6.54;85.92
71942;DHT22;59997;53.300;-6.260;2023-01-13T00:46:09;6.50;85.82
71942;DHT22;59997;53.300;-6.260;2023-01-13T00:48:35;6.47;85.89
71942;DHT22;59997;53.300;-6.260;2023-01-13T00:51:06;6.34;85.64
71942;DHT22;59997;53.300;-6.260;2023-01-13T00:53:34;6.40;85.04
71942;DHT22;59997;53.300;-6.260;2023-01-13T00:56:01;6.32;85.20
71942;DHT22;59997;53.300;-6.260;2023-01-13T00:58:27;6.32;84.91
71942;DHT22;59997;53.300;-6.260;2023-01-13T01:00:52;6.34;84.73
71942;DHT22;59997;53.300;-6.260;2023-01-13T01:03:18;6.29;84.79
71942;DHT22;59997;53.300;-6.260;2023-01-13T01:05:43;6.32;84.94
71942;DHT22;59997;53.300;-6.260;2023-01-13T01:08:09;6.34;84.59
71942;DHT22;59997;53.300;-6.260;2023-01-13T01:10:34;6.23;85.02
71942;DHT22;59997;53.300;-6.260;2023-01-13T01:12:59;6.39;84.32
71942;DHT22;59997;53.300;-6.260;2023-01-13T01:15:25;6.33;84.75
71942;DHT22;59997;53.300;-6.260;2023-01-13T01:17:51;6.33;84.40
71942;DHT22;59997;53.300;-6.260;2023-01-13T01:20:16;6.32;84.46
71942;DHT22;59997;53.300;-6.260;2023-01-13T01:22:42;6.39;83.97
71942;DHT22;59997;53.300;-6.260;2023-01-13T01:25:07;6.48;83.85
71942;DHT22;59997;53.300;-6.260;2023-01-13T01:27:33;6.53;84.03
71942;DHT22;59997;53.300;-6.260;2023-01-13T01:29:58;6.55;83.92
71942;DHT22;59997;53.300;-6.260;2023-01-13T01:32:24;6.50;84.12
71942;DHT22;59997;53.300;-6.260;2023-01-13T01:34:50;6.53;83.87
71942;DHT22;59997;53.300;-6.260;2023-01-13T01:37:15;6.51;83.83
71942;DHT22;59997;53.300;-6.260;2023-01-13T01:39:41;6.61;83.38
71942;DHT22;59997;53.300;-6.260;2023-01-13T01:42:14;6.60;83.54
71942;DHT22;59997;53.300;-6.260;2023-01-13T01:45:08;6.65;83.09
71942;DHT22;59997;53.300;-6.260;2023-01-13T01:47:34;6.67;83.43
71942;DHT22;59997;53.300;-6.260;2023-01-13T01:50:01;6.67;83.45
71942;DHT22;59997;53.300;-6.260;2023-01-13T01:52:35;6.75;83.32
71942;DHT22;59997;53.300;-6.260;2023-01-13T02:00:11;6.72;83.48
71942;DHT22;59997;53.300;-6.260;2023-01-13T02:02:37;6.75;83.36
71942;DHT22;59997;53.300;-6.260;2023-01-13T02:05:03;6.77;83.10
71942;DHT22;59997;53.300;-6.260;2023-01-13T02:07:31;6.74;83.45
71942;DHT22;59997;53.300;-6.260;2023-01-13T02:10:00;6.71;83.02
71942;DHT22;59997;53.300;-6.260;2023-01-13T02:12:27;6.71;83.18
71942;DHT22;59997;53.300;-6.260;2023-01-13T02:15:04;6.75;83.19
71942;DHT22;59997;53.300;-6.260;2023-01-13T02:28:38;6.78;83.40
71942;DHT22;59997;53.300;-6.260;2023-01-13T02:31:30;6.81;83.13
71942;DHT22;59997;53.300;-6.260;2023-01-13T02:34:13;6.71;83.61
71942;DHT22;59997;53.300;-6.260;2023-01-13T02:39:40;6.71;83.65
71942;DHT22;59997;53.300;-6.260;2023-01-13T02:42:32;6.82;83.20
71942;DHT22;59997;53.300;-6.260;2023-01-13T02:45:25;6.89;82.45
71942;DHT22;59997;53.300;-6.260;2023-01-13T02:47:53;6.91;82.27
71942;DHT22;59997;53.300;-6.260;2023-01-13T02:50:31;6.82;82.28
71942;DHT22;59997;53.300;-6.260;2023-01-13T02:53:36;6.70;82.56
71942;DHT22;59997;53.300;-6.260;2023-01-13T02:56:04;6.70;82.27
71942;DHT22;59997;53.300;-6.260;2023-01-13T02:58:31;6.63;82.54
71942;DHT22;59997;53.300;-6.260;2023-01-13T03:00:57;6.53;82.78
71942;DHT22;59997;53.300;-6.260;2023-01-13T03:03:23;6.43;83.25
71942;DHT22;59997;53.300;-6.260;2023-01-13T03:05:52;6.58;83.12
71942;DHT22;59997;53.300;-6.260;2023-01-13T03:11:11;6.81;82.83
71942;DHT22;59997;53.300;-6.260;2023-01-13T03:14:16;6.84;82.72
71942;DHT22;59997;53.300;-6.260;2023-01-13T03:17:04;6.82;82.85
71942;DHT22;59997;53.300;-6.260;2023-01-13T03:20:01;6.80;82.76
71942;DHT22;59997;53.300;-6.260;2023-01-13T03:22:41;6.72;82.84
71942;DHT22;59997;53.300;-6.260;2023-01-13T03:25:15;6.77;82.77
71942;DHT22;59997;53.300;-6.260;2023-01-13T03:27:53;6.80;82.69
71942;DHT22;59997;53.300;-6.260;2023-01-13T03:30:24;6.82;82.43
71942;DHT22;59997;53.300;-6.260;2023-01-13T03:33:14;6.81;82.52
71942;DHT22;59997;53.300;-6.260;2023-01-13T03:35:44;6.84;82.44
71942;DHT22;59997;53.300;-6.260;2023-01-13T03:38:20;6.88;82.17
71942;DHT22;59997;53.300;-6.260;2023-01-13T03:40:54;6.84;82.40
71942;DHT22;59997;53.300;-6.260;2023-01-13T03:43:26;6.89;82.38
71942;DHT22;59997;53.300;-6.260;2023-01-13T03:46:20;6.99;82.16
71942;DHT22;59997;53.300;-6.260;2023-01-13T03:48:49;7.12;82.25
71942;DHT22;59997;53.300;-6.260;2023-01-13T03:51:18;7.22;81.77
71942;DHT22;59997;53.300;-6.260;2023-01-13T03:53:48;7.23;81.62
71942;DHT22;59997;53.300;-6.260;2023-01-13T03:59:04;7.12;81.63
71942;DHT22;59997;53.300;-6.260;2023-01-13T04:01:32;7.00;81.88
71942;DHT22;59997;53.300;-6.260;2023-01-13T04:04:06;7.06;81.67
71942;DHT22;59997;53.300;-6.260;2023-01-13T04:09:18;6.92;81.86
71942;DHT22;59997;53.300;-6.260;2023-01-13T04:11:52;6.87;82.05
71942;DHT22;59997;53.300;-6.260;2023-01-13T04:14:19;6.72;82.30
71942;DHT22;59997;53.300;-6.260;2023-01-13T04:16:47;6.67;82.51
71942;DHT22;59997;53.300;-6.260;2023-01-13T04:19:12;6.71;82.12
71942;DHT22;59997;53.300;-6.260;2023-01-13T04:21:38;6.68;82.10
71942;DHT22;59997;53.300;-6.260;2023-01-13T04:24:03;6.68;82.18
71942;DHT22;59997;53.300;-6.260;2023-01-13T04:26:29;6.72;82.04
71942;DHT22;59997;53.300;-6.260;2023-01-13T04:28:54;6.74;82.03
71942;DHT22;59997;53.300;-6.260;2023-01-13T04:31:20;6.74;81.86
71942;DHT22;59997;53.300;-6.260;2023-01-13T04:33:45;6.65;82.11
71942;DHT22;59997;53.300;-6.260;2023-01-13T04:36:11;6.77;81.40
71942;DHT22;59997;53.300;-6.260;2023-01-13T04:38:36;6.68;81.77
71942;DHT22;59997;53.300;-6.260;2023-01-13T04:41:02;6.58;81.97
71942;DHT22;59997;53.300;-6.260;2023-01-13T04:43:27;6.57;81.91
71942;DHT22;59997;53.300;-6.260;2023-01-13T04:45:53;6.60;82.06
71942;DHT22;59997;53.300;-6.260;2023-01-13T04:48:18;6.54;81.96
71942;DHT22;59997;53.300;-6.260;2023-01-13T04:50:43;6.53;81.88
71942;DHT22;59997;53.300;-6.260;2023-01-13T04:53:09;6.64;81.68
71942;DHT22;59997;53.300;-6.260;2023-01-13T04:55:35;6.61;81.53
71942;DHT22;59997;53.300;-6.260;2023-01-13T04:58:04;6.64;81.34
71942;DHT22;59997;53.300;-6.260;2023-01-13T05:00:29;6.71;81.15
71942;DHT22;59997;53.300;-6.260;2023-01-13T05:02:56;6.80;80.94
71942;DHT22;59997;53.300;-6.260;2023-01-13T05:05:21;6.71;80.88
71942;DHT22;59997;53.300;-6.260;2023-01-13T05:07:47;6.68;80.95
71942;DHT22;59997;53.300;-6.260;2023-01-13T05:10:13;6.54;81.48
71942;DHT22;59997;53.300;-6.260;2023-01-13T05:12:39;6.57;81.57
71942;DHT22;59997;53.300;-6.260;2023-01-13T05:15:23;6.58;81.73
71942;DHT22;59997;53.300;-6.260;2023-01-13T05:18:08;6.53;82.15
71942;DHT22;59997;53.300;-6.260;2023-01-13T05:20:33;6.57;82.13
71942;DHT22;59997;53.300;-6.260;2023-01-13T05:22:59;6.58;82.49
71942;DHT22;59997;53.300;-6.260;2023-01-13T05:25:43;6.64;82.48
71942;DHT22;59997;53.300;-6.260;2023-01-13T05:28:09;6.61;82.81
71942;DHT22;59997;53.300;-6.260;2023-01-13T05:30:39;6.70;82.64
71942;DHT22;59997;53.300;-6.260;2023-01-13T05:33:13;6.64;82.87
71942;DHT22;59997;53.300;-6.260;2023-01-13T05:35:40;6.70;82.91
71942;DHT22;59997;53.300;-6.260;2023-01-13T05:38:06;6.71;82.85
71942;DHT22;59997;53.300;-6.260;2023-01-13T05:40:32;6.65;83.13
71942;DHT22;59997;53.300;-6.260;2023-01-13T05:43:19;6.58;83.27
71942;DHT22;59997;53.300;-6.260;2023-01-13T05:45:46;6.64;83.07
71942;DHT22;59997;53.300;-6.260;2023-01-13T05:48:13;6.61;83.09
71942;DHT22;59997;53.300;-6.260;2023-01-13T05:50:38;6.58;83.12
71942;DHT22;59997;53.300;-6.260;2023-01-13T05:53:04;6.55;83.00
71942;DHT22;59997;53.300;-6.260;2023-01-13T05:55:30;6.64;82.54
71942;DHT22;59997;53.300;-6.260;2023-01-13T05:57:55;6.71;82.14
71942;DHT22;59997;53.300;-6.260;2023-01-13T06:00:21;6.67;82.30
71942;DHT22;59997;53.300;-6.260;2023-01-13T06:02:46;6.72;82.10
71942;DHT22;59997;53.300;-6.260;2023-01-13T06:05:11;6.82;81.88
71942;DHT22;59997;53.300;-6.260;2023-01-13T06:07:37;6.82;81.69
71942;DHT22;59997;53.300;-6.260;2023-01-13T06:10:03;6.75;81.78
71942;DHT22;59997;53.300;-6.260;2023-01-13T06:12:28;6.64;82.29
71942;DHT22;59997;53.300;-6.260;2023-01-13T06:14:54;6.65;82.46
71942;DHT22;59997;53.300;-6.260;2023-01-13T06:17:19;6.63;82.76
71942;DHT22;59997;53.300;-6.260;2023-01-13T06:19:44;6.55;83.23
71942;DHT22;59997;53.300;-6.260;2023-01-13T06:22:30;6.48;83.28
71942;DHT22;59997;53.300;-6.260;2023-01-13T06:24:57;6.50;83.41
71942;DHT22;59997;53.300;-6.260;2023-01-13T06:27:22;6.44;83.72
71942;DHT22;59997;53.300;-6.260;2023-01-13T06:29:48;6.57;83.43
71942;DHT22;59997;53.300;-6.260;2023-01-13T06:32:17;6.58;83.39
71942;DHT22;59997;53.300;-6.260;2023-01-13T06:34:47;6.60;83.31
71942;DHT22;59997;53.300;-6.260;2023-01-13T06:37:15;6.47;83.65
71942;DHT22;59997;53.300;-6.260;2023-01-13T06:39:44;6.50;83.48
71942;DHT22;59997;53.300;-6.260;2023-01-13T06:42:10;6.54;83.23
71942;DHT22;59997;53.300;-6.260;2023-01-13T06:44:54;6.57;83.25
71942;DHT22;59997;53.300;-6.260;2023-01-13T06:47:20;6.58;83.25
71942;DHT22;59997;53.300;-6.260;2023-01-13T06:49:46;6.70;83.02
71942;DHT22;59997;53.300;-6.260;2023-01-13T06:52:12;6.77;82.83
71942;DHT22;59997;53.300;-6.260;2023-01-13T06:54:37;6.72;82.96
71942;DHT22;59997;53.300;-6.260;2023-01-13T06:57:03;6.80;83.06
71942;DHT22;59997;53.300;-6.260;2023-01-13T06:59:28;6.75;83.22
71942;DHT22;59997;53.300;-6.260;2023-01-13T07:01:54;6.67;83.36
71942;DHT22;59997;53.300;-6.260;2023-01-13T07:04:20;6.68;83.33
71942;DHT22;59997;53.300;-6.260;2023-01-13T07:06:45;6.71;83.16
71942;DHT22;59997;53.300;-6.260;2023-01-13T07:09:11;6.70;83.05
71942;DHT22;59997;53.300;-6.260;2023-01-13T07:11:36;6.55;83.16
71942;DHT22;59997;53.300;-6.260;2023-01-13T07:14:02;6.58;82.97
71942;DHT22;59997;53.300;-6.260;2023-01-13T07:16:46;6.58;82.79
71942;DHT22;59997;53.300;-6.260;2023-01-13T07:19:11;6.71;82.49
71942;DHT22;59997;53.300;-6.260;2023-01-13T07:21:37;6.64;82.59
71942;DHT22;59997;53.300;-6.260;2023-01-13T07:24:02;6.74;82.32
71942;DHT22;59997;53.300;-6.260;2023-01-13T07:26:28;6.75;82.36
71942;DHT22;59997;53.300;-6.260;2023-01-13T07:28:53;6.75;82.18
71942;DHT22;59997;53.300;-6.260;2023-01-13T07:31:20;6.68;82.40
71942;DHT22;59997;53.300;-6.260;2023-01-13T07:33:46;6.70;82.63
71942;DHT22;59997;53.300;-6.260;2023-01-13T07:36:13;6.72;82.45
71942;DHT22;59997;53.300;-6.260;2023-01-13T07:38:38;6.67;82.67
71942;DHT22;59997;53.300;-6.260;2023-01-13T07:41:05;6.55;82.83
71942;DHT22;59997;53.300;-6.260;2023-01-13T07:43:50;6.58;82.70
71942;DHT22;59997;53.300;-6.260;2023-01-13T07:46:16;6.65;82.51
71942;DHT22;59997;53.300;-6.260;2023-01-13T07:48:42;6.63;82.63
71942;DHT22;59997;53.300;-6.260;2023-01-13T07:51:10;6.70;82.32
71942;DHT22;59997;53.300;-6.260;2023-01-13T07:53:36;6.75;82.16
71942;DHT22;59997;53.300;-6.260;2023-01-13T07:56:04;6.71;82.04
71942;DHT22;59997;53.300;-6.260;2023-01-13T07:58:32;6.53;82.60
71942;DHT22;59997;53.300;-6.260;2023-01-13T08:00:57;6.54;82.84
71942;DHT22;59997;53.300;-6.260;2023-01-13T08:03:23;6.50;83.11
71942;DHT22;59997;53.300;-6.260;2023-01-13T08:05:49;6.58;83.09
71942;DHT22;59997;53.300;-6.260;2023-01-13T08:08:14;6.57;83.03
71942;DHT22;59997;53.300;-6.260;2023-01-13T08:10:40;6.57;83.17
71942;DHT22;59997;53.300;-6.260;2023-01-13T08:13:10;6.64;82.92
71942;DHT22;59997;53.300;-6.260;2023-01-13T08:15:43;6.68;82.62
71942;DHT22;59997;53.300;-6.260;2023-01-13T08:18:08;6.63;82.66
71942;DHT22;59997;53.300;-6.260;2023-01-13T08:20:34;6.71;82.40
71942;DHT22;59997;53.300;-6.260;2023-01-13T08:23:00;6.68;82.29
71942;DHT22;59997;53.300;-6.260;2023-01-13T08:25:26;6.64;82.37
71942;DHT22;59997;53.300;-6.260;2023-01-13T08:27:53;6.75;82.03
71942;DHT22;59997;53.300;-6.260;2023-01-13T08:30:19;6.72;81.90
71942;DHT22;59997;53.300;-6.260;2023-01-13T08:32:45;6.67;81.81
71942;DHT22;59997;53.300;-6.260;2023-01-13T08:35:12;6.72;81.63
71942;DHT22;59997;53.300;-6.260;2023-01-13T08:37:38;6.65;81.68
71942;DHT22;59997;53.300;-6.260;2023-01-13T08:40:04;6.61;81.82
71942;DHT22;59997;53.300;-6.260;2023-01-13T08:42:30;6.57;81.93
71942;DHT22;59997;53.300;-6.260;2023-01-13T08:44:56;6.67;81.79
71942;DHT22;59997;53.300;-6.260;2023-01-13T08:47:22;6.65;81.68
71942;DHT22;59997;53.300;-6.260;2023-01-13T08:49:48;6.70;81.63
71942;DHT22;59997;53.300;-6.260;2023-01-13T08:52:13;6.71;81.73
71942;DHT22;59997;53.300;-6.260;2023-01-13T08:54:39;6.74;81.45
71942;DHT22;59997;53.300;-6.260;2023-01-13T08:57:05;6.72;81.46
71942;DHT22;59997;53.300;-6.260;2023-01-13T08:59:31;6.77;81.28
71942;DHT22;59997;53.300;-6.260;2023-01-13T09:01:57;6.80;81.14
71942;DHT22;59997;53.300;-6.260;2023-01-13T09:04:23;6.70;81.45
71942;DHT22;59997;53.300;-6.260;2023-01-13T09:06:50;6.58;81.82
71942;DHT22;59997;53.300;-6.260;2023-01-13T09:09:16;6.68;81.53
71942;DHT22;59997;53.300;-6.260;2023-01-13T09:11:43;6.74;81.44
71942;DHT22;59997;53.300;-6.260;2023-01-13T09:14:31;6.78;81.45
71942;DHT22;59997;53.300;-6.260;2023-01-13T09:16:58;6.77;81.73
71942;DHT22;59997;53.300;-6.260;2023-01-13T09:19:24;6.74;81.61
71942;DHT22;59997;53.300;-6.260;2023-01-13T09:21:50;6.74;81.61
71942;DHT22;59997;53.300;-6.260;2023-01-13T09:24:17;6.77;81.53
71942;DHT22;59997;53.300;-6.260;2023-01-13T09:26:42;6.75;81.61
71942;DHT22;59997;53.300;-6.260;2023-01-13T09:29:08;6.77;81.46
71942;DHT22;59997;53.300;-6.260;2023-01-13T09:31:33;6.74;81.43
71942;DHT22;59997;53.300;-6.260;2023-01-13T09:34:03;6.80;81.39
71942;DHT22;59997;53.300;-6.260;2023-01-13T09:36:47;6.80;81.40
71942;DHT22;59997;53.300;-6.260;2023-01-13T09:39:13;6.82;81.32
71942;DHT22;59997;53.300;-6.260;2023-01-13T09:41:43;6.84;81.43
71942;DHT22;59997;53.300;-6.260;2023-01-13T09:47:18;7.06;80.83
71942;DHT22;59997;53.300;-6.260;2023-01-13T09:49:45;7.05;80.76
71942;DHT22;59997;53.300;-6.260;2023-01-13T09:52:15;7.10;80.37
71942;DHT22;59997;53.300;-6.260;2023-01-13T09:55:05;7.23;80.30
71942;DHT22;59997;53.300;-6.260;2023-01-13T09:57:36;7.40;79.80
71942;DHT22;59997;53.300;-6.260;2023-01-13T10:00:08;7.54;79.10
71942;DHT22;59997;53.300;-6.260;2023-01-13T10:05:40;7.44;79.27
71942;DHT22;59997;53.300;-6.260;2023-01-13T10:08:10;7.35;79.56
71942;DHT22;59997;53.300;-6.260;2023-01-13T10:10:41;7.38;79.36
71942;DHT22;59997;53.300;-6.260;2023-01-13T10:13:26;7.31;79.36
71942;DHT22;59997;53.300;-6.260;2023-01-13T10:16:07;7.57;78.69
71942;DHT22;59997;53.300;-6.260;2023-01-13T10:26:51;8.11;76.55
71942;DHT22;59997;53.300;-6.260;2023-01-13T10:29:23;8.44;75.73
71942;DHT22;59997;53.300;-6.260;2023-01-13T10:31:53;8.69;74.86
71942;DHT22;59997;53.300;-6.260;2023-01-13T10:34:19;8.69;74.94
71942;DHT22;59997;53.300;-6.260;2023-01-13T10:37:06;8.48;75.16
71942;DHT22;59997;53.300;-6.260;2023-01-13T10:39:45;8.31;75.71
71942;DHT22;59997;53.300;-6.260;2023-01-13T10:42:14;8.17;75.75
71942;DHT22;59997;53.300;-6.260;2023-01-13T10:44:51;8.06;76.61
71942;DHT22;59997;53.300;-6.260;2023-01-13T10:47:36;8.21;76.39
71942;DHT22;59997;53.300;-6.260;2023-01-13T10:52:38;9.04;73.62
71942;DHT22;59997;53.300;-6.260;2023-01-13T10:55:31;9.18;73.09
71942;DHT22;59997;53.300;-6.260;2023-01-13T10:58:14;9.22;71.60
71942;DHT22;59997;53.300;-6.260;2023-01-13T11:00:41;9.25;71.31
71942;DHT22;59997;53.300;-6.260;2023-01-13T11:03:20;9.39;71.06
71942;DHT22;59997;53.300;-6.260;2023-01-13T11:05:57;9.41;71.07
71942;DHT22;59997;53.300;-6.260;2023-01-13T11:08:39;9.34;71.49
71942;DHT22;59997;53.300;-6.260;2023-01-13T11:13:50;9.59;71.45
71942;DHT22;59997;53.300;-6.260;2023-01-13T11:16:36;9.50;71.28
71942;DHT22;59997;53.300;-6.260;2023-01-13T11:19:09;9.57;71.25
71942;DHT22;59997;53.300;-6.260;2023-01-13T11:21:53;9.67;71.42
71942;DHT22;59997;53.300;-6.260;2023-01-13T11:27:14;9.70;70.79
71942;DHT22;59997;53.300;-6.260;2023-01-13T11:32:39;9.79;70.28
71942;DHT22;59997;53.300;-6.260;2023-01-13T11:35:18;9.79;70.38
71942;DHT22;59997;53.300;-6.260;2023-01-13T11:37:50;9.97;70.33
71942;DHT22;59997;53.300;-6.260;2023-01-13T11:40:28;9.91;70.86
71942;DHT22;59997;53.300;-6.260;2023-01-13T11:43:02;9.83;70.72
71942;DHT22;59997;53.300;-6.260;2023-01-13T11:45:36;9.86;71.22
71942;DHT22;59997;53.300;-6.260;2023-01-13T11:48:04;9.65;71.07
71942;DHT22;59997;53.300;-6.260;2023-01-13T12:04:28;9.77;71.19
71942;DHT22;59997;53.300;-6.260;2023-01-13T12:25:49;10.12;70.42
71942;DHT22;59997;53.300;-6.260;2023-01-13T12:28:22;10.21;69.91
71942;DHT22;59997;53.300;-6.260;2023-01-13T12:30:52;10.28;69.20
71942;DHT22;59997;53.300;-6.260;2023-01-13T12:44:33;10.19;67.81
71942;DHT22;59997;53.300;-6.260;2023-01-13T12:46:59;10.26;68.16
71942;DHT22;59997;53.300;-6.260;2023-01-13T12:49:33;10.09;68.58
71942;DHT22;59997;53.300;-6.260;2023-01-13T12:52:04;10.36;68.57
71942;DHT22;59997;53.300;-6.260;2023-01-13T12:57:19;10.42;68.14
71942;DHT22;59997;53.300;-6.260;2023-01-13T13:02:28;9.98;70.48
71942;DHT22;59997;53.300;-6.260;2023-01-13T13:04:56;9.84;69.91
71942;DHT22;59997;53.300;-6.260;2023-01-13T13:10:28;9.59;70.43
71942;DHT22;59997;53.300;-6.260;2023-01-13T13:12:59;9.50;71.11
71942;DHT22;59997;53.300;-6.260;2023-01-13T13:15:44;9.38;70.61
71942;DHT22;59997;53.300;-6.260;2023-01-13T13:26:30;9.31;72.17
71942;DHT22;59997;53.300;-6.260;2023-01-13T13:34:32;9.36;72.63
71942;DHT22;59997;53.300;-6.260;2023-01-13T13:37:09;9.34;72.28
71942;DHT22;59997;53.300;-6.260;2023-01-13T13:39:40;9.42;72.09
71942;DHT22;59997;53.300;-6.260;2023-01-13T13:42:35;9.55;72.29
71942;DHT22;59997;53.300;-6.260;2023-01-13T13:45:24;9.62;71.30
71942;DHT22;59997;53.300;-6.260;2023-01-13T13:48:24;9.57;70.79
71942;DHT22;59997;53.300;-6.260;2023-01-13T13:50:54;9.52;71.24
71942;DHT22;59997;53.300;-6.260;2023-01-13T13:53:34;9.41;71.42
71942;DHT22;59997;53.300;-6.260;2023-01-13T13:56:03;9.41;71.38
71942;DHT22;59997;53.300;-6.260;2023-01-13T13:58:32;9.49;71.09
71942;DHT22;59997;53.300;-6.260;2023-01-13T14:01:05;9.56;71.06
71942;DHT22;59997;53.300;-6.260;2023-01-13T14:03:34;9.66;70.14
71942;DHT22;59997;53.300;-6.260;2023-01-13T14:06:05;9.73;70.45
71942;DHT22;59997;53.300;-6.260;2023-01-13T14:08:37;9.84;69.74
71942;DHT22;59997;53.300;-6.260;2023-01-13T14:11:24;9.94;69.99
71942;DHT22;59997;53.300;-6.260;2023-01-13T14:14:00;9.83;69.71
71942;DHT22;59997;53.300;-6.260;2023-01-13T14:16:26;9.69;70.41
71942;DHT22;59997;53.300;-6.260;2023-01-13T14:18:52;9.65;70.41
71942;DHT22;59997;53.300;-6.260;2023-01-13T14:21:28;9.56;71.49
71942;DHT22;59997;53.300;-6.260;2023-01-13T14:24:14;9.43;70.61
71942;DHT22;59997;53.300;-6.260;2023-01-13T14:26:40;9.32;71.38
71942;DHT22;59997;53.300;-6.260;2023-01-13T14:29:06;9.15;71.23
71942;DHT22;59997;53.300;-6.260;2023-01-13T14:31:31;9.06;72.23
71942;DHT22;59997;53.300;-6.260;2023-01-13T14:34:00;8.94;73.57
71942;DHT22;59997;53.300;-6.260;2023-01-13T14:41:37;8.54;75.17
71942;DHT22;59997;53.300;-6.260;2023-01-13T14:44:25;8.49;75.07
71942;DHT22;59997;53.300;-6.260;2023-01-13T14:46:53;8.41;75.57
71942;DHT22;59997;53.300;-6.260;2023-01-13T14:49:40;8.27;75.98
71942;DHT22;59997;53.300;-6.260;2023-01-13T14:52:21;8.14;76.44
71942;DHT22;59997;53.300;-6.260;2023-01-13T14:54:50;8.11;75.88
71942;DHT22;59997;53.300;-6.260;2023-01-13T14:57:45;8.09;75.60
71942;DHT22;59997;53.300;-6.260;2023-01-13T15:07:51;8.10;75.80
71942;DHT22;59997;53.300;-6.260;2023-01-13T15:10:31;8.13;75.57
71942;DHT22;59997;53.300;-6.260;2023-01-13T15:13:00;8.11;75.67
71942;DHT22;59997;53.300;-6.260;2023-01-13T15:15:31;8.11;75.77
71942;DHT22;59997;53.300;-6.260;2023-01-13T15:17:58;8.14;75.36
71942;DHT22;59997;53.300;-6.260;2023-01-13T15:20:24;8.17;75.51
71942;DHT22;59997;53.300;-6.260;2023-01-13T15:22:51;8.17;75.68
71942;DHT22;59997;53.300;-6.260;2023-01-13T15:25:17;8.17;75.34
71942;DHT22;59997;53.300;-6.260;2023-01-13T15:27:44;8.11;75.70
71942;DHT22;59997;53.300;-6.260;2023-01-13T15:32:43;8.11;75.59
71942;DHT22;59997;53.300;-6.260;2023-01-13T15:35:12;8.09;75.76
71942;DHT22;59997;53.300;-6.260;2023-01-13T15:37:39;8.04;76.12
71942;DHT22;59997;53.300;-6.260;2023-01-13T15:40:14;7.96;76.20
71942;DHT22;59997;53.300;-6.260;2023-01-13T15:42:40;7.99;76.28
71942;DHT22;59997;53.300;-6.260;2023-01-13T15:45:25;8.04;76.24
71942;DHT22;59997;53.300;-6.260;2023-01-13T15:48:10;7.93;76.94
71942;DHT22;59997;53.300;-6.260;2023-01-13T15:50:36;7.85;77.43
71942;DHT22;59997;53.300;-6.260;2023-01-13T15:53:01;7.85;77.81
71942;DHT22;59997;53.300;-6.260;2023-01-13T15:55:29;7.83;77.94
71942;DHT22;59997;53.300;-6.260;2023-01-13T15:57:54;7.76;78.50
71942;DHT22;59997;53.300;-6.260;2023-01-13T16:00:21;7.69;78.90
71942;DHT22;59997;53.300;-6.260;2023-01-13T16:02:47;7.65;78.91
71942;DHT22;59997;53.300;-6.260;2023-01-13T16:05:12;7.54;79.26
71942;DHT22;59997;53.300;-6.260;2023-01-13T16:07:38;7.54;79.28
71942;DHT22;59997;53.300;-6.260;2023-01-13T16:10:05;7.58;79.08
71942;DHT22;59997;53.300;-6.260;2023-01-13T16:12:32;7.59;79.30
71942;DHT22;59997;53.300;-6.260;2023-01-13T16:14:58;7.54;79.23
71942;DHT22;59997;53.300;-6.260;2023-01-13T16:17:25;7.54;79.38
71942;DHT22;59997;53.300;-6.260;2023-01-13T16:19:53;7.55;79.05
71942;DHT22;59997;53.300;-6.260;2023-01-13T16:22:18;7.54;79.12
71942;DHT22;59997;53.300;-6.260;2023-01-13T16:24:44;7.59;78.68
71942;DHT22;59997;53.300;-6.260;2023-01-13T16:27:19;7.58;78.70
71942;DHT22;59997;53.300;-6.260;2023-01-13T16:29:45;7.52;78.78
71942;DHT22;59997;53.300;-6.260;2023-01-13T16:32:11;7.55;78.58
71942;DHT22;59997;53.300;-6.260;2023-01-13T16:34:37;7.52;78.60
71942;DHT22;59997;53.300;-6.260;2023-01-13T16:37:05;7.58;78.51
71942;DHT22;59997;53.300;-6.260;2023-01-13T16:39:31;7.64;78.23
71942;DHT22;59997;53.300;-6.260;2023-01-13T16:41:56;7.65;78.17
71942;DHT22;59997;53.300;-6.260;2023-01-13T16:44:22;7.69;78.01
71942;DHT22;59997;53.300;-6.260;2023-01-13T16:46:47;7.62;78.18
71942;DHT22;59997;53.300;-6.260;2023-01-13T16:49:14;7.68;77.99
71942;DHT22;59997;53.300;-6.260;2023-01-13T16:51:41;7.69;78.04
71942;DHT22;59997;53.300;-6.260;2023-01-13T16:54:06;7.72;77.92
71942;DHT22;59997;53.300;-6.260;2023-01-13T16:56:34;7.75;77.78
71942;DHT22;59997;53.300;-6.260;2023-01-13T16:59:08;7.75;77.58
71942;DHT22;59997;53.300;-6.260;2023-01-13T17:01:37;7.79;77.66
71942;DHT22;59997;53.300;-6.260;2023-01-13T17:04:03;7.69;77.93
71942;DHT22;59997;53.300;-6.260;2023-01-13T17:06:52;7.68;78.01
71942;DHT22;59997;53.300;-6.260;2023-01-13T17:09:24;7.75;77.69
71942;DHT22;59997;53.300;-6.260;2023-01-13T17:11:50;7.82;77.41
71942;DHT22;59997;53.300;-6.260;2023-01-13T17:14:16;7.85;77.36
71942;DHT22;59997;53.300;-6.260;2023-01-13T17:16:43;7.92;77.31
71942;DHT22;59997;53.300;-6.260;2023-01-13T17:19:09;7.86;77.47
71942;DHT22;59997;53.300;-6.260;2023-01-13T17:21:35;7.83;77.69
71942;DHT22;59997;53.300;-6.260;2023-01-13T17:24:00;7.78;77.90
71942;DHT22;59997;53.300;-6.260;2023-01-13T17:26:33;7.83;77.44
71942;DHT22;59997;53.300;-6.260;2023-01-13T17:29:06;7.94;76.92
71942;DHT22;59997;53.300;-6.260;2023-01-13T17:31:34;7.90;77.05
71942;DHT22;59997;53.300;-6.260;2023-01-13T17:34:00;7.89;77.14
71942;DHT22;59997;53.300;-6.260;2023-01-13T17:36:26;7.81;77.33
71942;DHT22;59997;53.300;-6.260;2023-01-13T17:38:51;7.86;77.21
71942;DHT22;59997;53.300;-6.260;2023-01-13T17:41:17;7.87;77.01
71942;DHT22;59997;53.300;-6.260;2023-01-13T17:43:43;7.89;76.59
71942;DHT22;59997;53.300;-6.260;2023-01-13T17:46:09;7.85;77.20
71942;DHT22;59997;53.300;-6.260;2023-01-13T17:48:36;7.86;76.96
71942;DHT22;59997;53.300;-6.260;2023-01-13T17:51:02;7.87;76.93
71942;DHT22;59997;53.300;-6.260;2023-01-13T17:53:31;7.81;76.93
71942;DHT22;59997;53.300;-6.260;2023-01-13T17:55:56;7.81;77.13
71942;DHT22;59997;53.300;-6.260;2023-01-13T17:58:22;7.78;77.38
71942;DHT22;59997;53.300;-6.260;2023-01-13T18:00:48;7.81;77.50
71942;DHT22;59997;53.300;-6.260;2023-01-13T18:03:15;7.85;77.32